sensor_id;sensor_type;location;lat;lon;timestamp;P1;durP1;ratioP1;P2;durP2;ratioP2
72394;SDS011;60384;48.152;11.614;2023-03-01T00:05:00;1.27;;;0.82;;
72394;SDS011;60384;48.152;11.614;2023-03-01T00:08:02;0.55;;;0.47;;
72394;SDS011;60384;48.152;11.614;2023-03-01T00:11:06;5.53;;;2.72;;
72394;SDS011;60384;48.152;11.614;2023-03-01T00:14:08;4.80;;;2.08;;
72394;SDS011;60384;48.152;11.614;2023-03-01T00:17:12;0.70;;;0.52;;
72394;SDS011;60384;48.152;11.614;2023-03-01T00:20:14;2.58;;;1.25;;
72394;SDS011;60384;48.152;11.614;2023-03-01T00:23:15;5.50;;;1.20;;
72394;SDS011;60384;48.152;11.614;2023-03-01T00:26:18;1.25;;;1.15;;
72394;SDS011;60384;48.152;11.614;2023-03-01T00:29:22;1.67;;;1.15;;
72394;SDS011;60384;48.152;11.614;2023-03-01T00:32:25;0.70;;;0.70;;
72394;SDS011;60384;48.152;11.614;2023-03-01T00:35:27;0.45;;;0.43;;
72394;SDS011;60384;48.152;11.614;2023-03-01T00:38:29;1.27;;;1.17;;
72394;SDS011;60384;48.152;11.614;2023-03-01T00:41:32;2.65;;;1.40;;
72394;SDS011;60384;48.152;11.614;2023-03-01T00:44:34;1.80;;;1.33;;
72394;SDS011;60384;48.152;11.614;2023-03-01T00:47:37;1.08;;;0.95;;
72394;SDS011;60384;48.152;11.614;2023-03-01T00:50:39;1.75;;;1.00;;
72394;SDS011;60384;48.152;11.614;2023-03-01T00:53:42;0.88;;;0.52;;
72394;SDS011;60384;48.152;11.614;2023-03-01T00:56:44;1.83;;;1.70;;
72394;SDS011;60384;48.152;11.614;2023-03-01T00:59:46;0.35;;;0.35;;
72394;SDS011;60384;48.152;11.614;2023-03-01T01:02:49;1.85;;;1.52;;
72394;SDS011;60384;48.152;11.614;2023-03-01T01:05:51;3.17;;;2.08;;
72394;SDS011;60384;48.152;11.614;2023-03-01T01:08:53;2.40;;;1.60;;
72394;SDS011;60384;48.152;11.614;2023-03-01T01:11:56;3.00;;;2.05;;
72394;SDS011;60384;48.152;11.614;2023-03-01T01:14:57;0.82;;;0.75;;
72394;SDS011;60384;48.152;11.614;2023-03-01T01:21:03;1.52;;;1.42;;
72394;SDS011;60384;48.152;11.614;2023-03-01T01:24:06;0.90;;;0.85;;
72394;SDS011;60384;48.152;11.614;2023-03-01T01:27:08;0.28;;;0.28;;
72394;SDS011;60384;48.152;11.614;2023-03-01T01:30:10;4.22;;;2.22;;
72394;SDS011;60384;48.152;11.614;2023-03-01T01:33:14;1.30;;;1.08;;
72394;SDS011;60384;48.152;11.614;2023-03-01T01:36:16;2.03;;;0.68;;
72394;SDS011;60384;48.152;11.614;2023-03-01T01:39:18;0.80;;;0.60;;
72394;SDS011;60384;48.152;11.614;2023-03-01T01:42:21;2.25;;;0.70;;
72394;SDS011;60384;48.152;11.614;2023-03-01T01:45:27;4.00;;;2.97;;
72394;SDS011;60384;48.152;11.614;2023-03-01T01:48:34;2.60;;;1.95;;
72394;SDS011;60384;48.152;11.614;2023-03-01T01:51:42;0.60;;;0.60;;
72394;SDS011;60384;48.152;11.614;2023-03-01T01:54:49;2.65;;;1.90;;
72394;SDS011;60384;48.152;11.614;2023-03-01T01:57:53;0.88;;;0.60;;
72394;SDS011;60384;48.152;11.614;2023-03-01T02:00:57;2.85;;;1.20;;
72394;SDS011;60384;48.152;11.614;2023-03-01T02:04:02;1.35;;;1.27;;
72394;SDS011;60384;48.152;11.614;2023-03-01T02:07:08;1.85;;;1.05;;
72394;SDS011;60384;48.152;11.614;2023-03-01T02:10:15;1.05;;;0.40;;
72394;SDS011;60384;48.152;11.614;2023-03-01T02:13:17;0.52;;;0.52;;
72394;SDS011;60384;48.152;11.614;2023-03-01T02:16:19;2.38;;;1.73;;
72394;SDS011;60384;48.152;11.614;2023-03-01T02:19:26;2.80;;;1.85;;
72394;SDS011;60384;48.152;11.614;2023-03-01T02:22:36;0.63;;;0.63;;
72394;SDS011;60384;48.152;11.614;2023-03-01T02:25:43;4.35;;;2.80;;
72394;SDS011;60384;48.152;11.614;2023-03-01T02:28:54;3.60;;;2.28;;
72394;SDS011;60384;48.152;11.614;2023-03-01T02:31:57;2.00;;;1.00;;
72394;SDS011;60384;48.152;11.614;2023-03-01T02:35:00;3.90;;;3.15;;
72394;SDS011;60384;48.152;11.614;2023-03-01T02:38:07;0.95;;;0.50;;
72394;SDS011;60384;48.152;11.614;2023-03-01T02:41:10;1.02;;;0.98;;
72394;SDS011;60384;48.152;11.614;2023-03-01T02:44:16;9.98;;;3.60;;
72394;SDS011;60384;48.152;11.614;2023-03-01T02:47:18;3.83;;;2.35;;
72394;SDS011;60384;48.152;11.614;2023-03-01T02:50:31;5.95;;;3.42;;
72394;SDS011;60384;48.152;11.614;2023-03-01T02:53:48;0.43;;;0.43;;
72394;SDS011;60384;48.152;11.614;2023-03-01T02:56:58;5.57;;;2.63;;
72394;SDS011;60384;48.152;11.614;2023-03-01T03:00:05;0.95;;;0.95;;
72394;SDS011;60384;48.152;11.614;2023-03-01T03:03:10;2.20;;;2.00;;
72394;SDS011;60384;48.152;11.614;2023-03-01T03:06:15;0.57;;;0.55;;
72394;SDS011;60384;48.152;11.614;2023-03-01T03:09:17;0.52;;;0.50;;
72394;SDS011;60384;48.152;11.614;2023-03-01T03:12:20;1.70;;;0.77;;
72394;SDS011;60384;48.152;11.614;2023-03-01T03:15:23;5.88;;;2.33;;
72394;SDS011;60384;48.152;11.614;2023-03-01T03:18:26;6.50;;;2.78;;
72394;SDS011;60384;48.152;11.614;2023-03-01T03:21:27;0.47;;;0.47;;
72394;SDS011;60384;48.152;11.614;2023-03-01T03:24:29;0.30;;;0.30;;
72394;SDS011;60384;48.152;11.614;2023-03-01T03:27:38;9.07;;;4.55;;
72394;SDS011;60384;48.152;11.614;2023-03-01T03:30:43;8.48;;;2.08;;
72394;SDS011;60384;48.152;11.614;2023-03-01T03:33:45;4.43;;;2.28;;
72394;SDS011;60384;48.152;11.614;2023-03-01T03:36:47;3.63;;;3.20;;
72394;SDS011;60384;48.152;11.614;2023-03-01T03:39:49;6.95;;;3.50;;
72394;SDS011;60384;48.152;11.614;2023-03-01T03:42:54;1.45;;;1.13;;
72394;SDS011;60384;48.152;11.614;2023-03-01T03:45:58;1.85;;;0.88;;
72394;SDS011;60384;48.152;11.614;2023-03-01T03:48:59;0.22;;;0.22;;
72394;SDS011;60384;48.152;11.614;2023-03-01T03:52:01;1.30;;;1.15;;
72394;SDS011;60384;48.152;11.614;2023-03-01T03:55:03;1.92;;;1.52;;
72394;SDS011;60384;48.152;11.614;2023-03-01T03:58:10;3.25;;;1.88;;
72394;SDS011;60384;48.152;11.614;2023-03-01T04:01:13;1.77;;;1.45;;
72394;SDS011;60384;48.152;11.614;2023-03-01T04:04:15;5.35;;;3.20;;
72394;SDS011;60384;48.152;11.614;2023-03-01T04:07:27;1.05;;;1.05;;
72394;SDS011;60384;48.152;11.614;2023-03-01T04:10:30;2.35;;;2.15;;
72394;SDS011;60384;48.152;11.614;2023-03-01T04:13:33;0.65;;;0.60;;
72394;SDS011;60384;48.152;11.614;2023-03-01T04:16:36;5.30;;;3.40;;
72394;SDS011;60384;48.152;11.614;2023-03-01T04:19:37;1.65;;;1.42;;
72394;SDS011;60384;48.152;11.614;2023-03-01T04:22:40;0.98;;;0.95;;
72394;SDS011;60384;48.152;11.614;2023-03-01T04:25:42;5.13;;;4.13;;
72394;SDS011;60384;48.152;11.614;2023-03-01T04:28:49;0.80;;;0.68;;
72394;SDS011;60384;48.152;11.614;2023-03-01T04:31:52;2.55;;;1.35;;
72394;SDS011;60384;48.152;11.614;2023-03-01T04:34:54;0.98;;;0.47;;
72394;SDS011;60384;48.152;11.614;2023-03-01T04:37:56;16.83;;;2.90;;
72394;SDS011;60384;48.152;11.614;2023-03-01T04:40:58;2.75;;;1.20;;
72394;SDS011;60384;48.152;11.614;2023-03-01T04:44:00;3.92;;;1.02;;
72394;SDS011;60384;48.152;11.614;2023-03-01T04:47:03;1.08;;;0.98;;
72394;SDS011;60384;48.152;11.614;2023-03-01T04:50:05;3.03;;;1.50;;
72394;SDS011;60384;48.152;11.614;2023-03-01T04:53:09;3.28;;;1.95;;
72394;SDS011;60384;48.152;11.614;2023-03-01T04:56:10;1.25;;;1.05;;
72394;SDS011;60384;48.152;11.614;2023-03-01T04:59:14;2.03;;;1.83;;
72394;SDS011;60384;48.152;11.614;2023-03-01T05:02:17;4.85;;;1.10;;
72394;SDS011;60384;48.152;11.614;2023-03-01T05:05:19;0.60;;;0.55;;
72394;SDS011;60384;48.152;11.614;2023-03-01T05:08:25;1.65;;;1.23;;
72394;SDS011;60384;48.152;11.614;2023-03-01T05:11:27;4.25;;;2.72;;
72394;SDS011;60384;48.152;11.614;2023-03-01T05:14:33;3.45;;;2.75;;
72394;SDS011;60384;48.152;11.614;2023-03-01T05:17:36;1.67;;;1.58;;
72394;SDS011;60384;48.152;11.614;2023-03-01T05:20:38;7.00;;;3.70;;
72394;SDS011;60384;48.152;11.614;2023-03-01T05:23:40;2.13;;;1.25;;
72394;SDS011;60384;48.152;11.614;2023-03-01T05:26:42;1.58;;;0.73;;
72394;SDS011;60384;48.152;11.614;2023-03-01T05:29:43;3.38;;;1.98;;
72394;SDS011;60384;48.152;11.614;2023-03-01T05:32:47;3.30;;;2.65;;
72394;SDS011;60384;48.152;11.614;2023-03-01T05:35:59;0.75;;;0.73;;
72394;SDS011;60384;48.152;11.614;2023-03-01T05:39:01;0.88;;;0.88;;
72394;SDS011;60384;48.152;11.614;2023-03-01T05:42:03;3.08;;;1.33;;
72394;SDS011;60384;48.152;11.614;2023-03-01T05:45:06;4.45;;;2.33;;
72394;SDS011;60384;48.152;11.614;2023-03-01T05:48:11;5.28;;;2.08;;
72394;SDS011;60384;48.152;11.614;2023-03-01T05:51:14;2.92;;;1.73;;
72394;SDS011;60384;48.152;11.614;2023-03-01T05:54:16;8.88;;;3.40;;
72394;SDS011;60384;48.152;11.614;2023-03-01T05:57:18;1.92;;;1.20;;
72394;SDS011;60384;48.152;11.614;2023-03-01T06:00:20;0.93;;;0.77;;
72394;SDS011;60384;48.152;11.614;2023-03-01T06:03:24;3.22;;;1.15;;
72394;SDS011;60384;48.152;11.614;2023-03-01T06:06:26;0.90;;;0.85;;
72394;SDS011;60384;48.152;11.614;2023-03-01T06:09:28;3.17;;;1.60;;
72394;SDS011;60384;48.152;11.614;2023-03-01T06:12:31;4.28;;;1.90;;
72394;SDS011;60384;48.152;11.614;2023-03-01T06:18:36;7.00;;;2.07;;
72394;SDS011;60384;48.152;11.614;2023-03-01T06:21:38;1.67;;;1.00;;
72394;SDS011;60384;48.152;11.614;2023-03-01T06:24:40;2.30;;;2.03;;
72394;SDS011;60384;48.152;11.614;2023-03-01T06:27:42;3.70;;;1.95;;
72394;SDS011;60384;48.152;11.614;2023-03-01T06:30:43;0.35;;;0.35;;
72394;SDS011;60384;48.152;11.614;2023-03-01T06:33:47;1.17;;;1.10;;
72394;SDS011;60384;48.152;11.614;2023-03-01T06:36:49;0.38;;;0.38;;
72394;SDS011;60384;48.152;11.614;2023-03-01T06:39:51;5.53;;;2.90;;
72394;SDS011;60384;48.152;11.614;2023-03-01T06:42:53;1.67;;;1.42;;
72394;SDS011;60384;48.152;11.614;2023-03-01T06:45:55;2.15;;;1.27;;
72394;SDS011;60384;48.152;11.614;2023-03-01T06:48:58;2.92;;;2.53;;
72394;SDS011;60384;48.152;11.614;2023-03-01T06:52:00;1.50;;;1.40;;
72394;SDS011;60384;48.152;11.614;2023-03-01T06:55:02;1.98;;;1.80;;
72394;SDS011;60384;48.152;11.614;2023-03-01T06:58:04;1.85;;;1.23;;
72394;SDS011;60384;48.152;11.614;2023-03-01T07:01:06;1.30;;;1.13;;
72394;SDS011;60384;48.152;11.614;2023-03-01T07:04:10;1.15;;;0.77;;
72394;SDS011;60384;48.152;11.614;2023-03-01T07:07:11;2.50;;;1.90;;
72394;SDS011;60384;48.152;11.614;2023-03-01T07:10:13;3.60;;;2.28;;
72394;SDS011;60384;48.152;11.614;2023-03-01T07:13:15;0.80;;;0.77;;
72394;SDS011;60384;48.152;11.614;2023-03-01T07:16:17;3.28;;;3.00;;
72394;SDS011;60384;48.152;11.614;2023-03-01T07:19:21;2.05;;;1.77;;
72394;SDS011;60384;48.152;11.614;2023-03-01T07:22:24;1.25;;;1.15;;
72394;SDS011;60384;48.152;11.614;2023-03-01T07:25:25;7.30;;;3.65;;
72394;SDS011;60384;48.152;11.614;2023-03-01T07:28:27;2.58;;;2.38;;
72394;SDS011;60384;48.152;11.614;2023-03-01T07:31:30;2.13;;;1.52;;
72394;SDS011;60384;48.152;11.614;2023-03-01T07:37:35;4.32;;;2.22;;
72394;SDS011;60384;48.152;11.614;2023-03-01T07:40:37;1.45;;;0.55;;
72394;SDS011;60384;48.152;11.614;2023-03-01T07:43:39;1.17;;;0.90;;
72394;SDS011;60384;48.152;11.614;2023-03-01T07:46:41;4.15;;;2.38;;
72394;SDS011;60384;48.152;11.614;2023-03-01T07:49:44;5.85;;;4.13;;
72394;SDS011;60384;48.152;11.614;2023-03-01T07:52:46;2.92;;;2.03;;
72394;SDS011;60384;48.152;11.614;2023-03-01T07:55:49;2.00;;;1.65;;
72394;SDS011;60384;48.152;11.614;2023-03-01T07:58:50;2.80;;;2.53;;
72394;SDS011;60384;48.152;11.614;2023-03-01T08:01:52;2.90;;;1.40;;
72394;SDS011;60384;48.152;11.614;2023-03-01T08:04:56;3.38;;;3.08;;
72394;SDS011;60384;48.152;11.614;2023-03-01T08:07:57;6.72;;;1.20;;
72394;SDS011;60384;48.152;11.614;2023-03-01T08:10:59;9.57;;;4.47;;
72394;SDS011;60384;48.152;11.614;2023-03-01T08:14:05;4.15;;;3.00;;
72394;SDS011;60384;48.152;11.614;2023-03-01T08:17:07;0.52;;;0.52;;
72394;SDS011;60384;48.152;11.614;2023-03-01T08:20:11;6.70;;;3.33;;
72394;SDS011;60384;48.152;11.614;2023-03-01T08:23:13;7.68;;;3.70;;
72394;SDS011;60384;48.152;11.614;2023-03-01T08:26:16;6.10;;;2.45;;
72394;SDS011;60384;48.152;11.614;2023-03-01T08:29:19;2.88;;;2.50;;
72394;SDS011;60384;48.152;11.614;2023-03-01T08:32:21;5.13;;;2.10;;
72394;SDS011;60384;48.152;11.614;2023-03-01T08:35:24;2.15;;;1.90;;
72394;SDS011;60384;48.152;11.614;2023-03-01T08:38:26;6.90;;;2.35;;
72394;SDS011;60384;48.152;11.614;2023-03-01T08:41:28;5.50;;;3.00;;
72394;SDS011;60384;48.152;11.614;2023-03-01T08:47:32;3.97;;;2.07;;
72394;SDS011;60384;48.152;11.614;2023-03-01T08:50:35;1.50;;;0.47;;
72394;SDS011;60384;48.152;11.614;2023-03-01T08:53:37;2.97;;;1.38;;
72394;SDS011;60384;48.152;11.614;2023-03-01T08:56:39;6.40;;;2.20;;
72394;SDS011;60384;48.152;11.614;2023-03-01T08:59:41;1.38;;;1.27;;
72394;SDS011;60384;48.152;11.614;2023-03-01T09:02:43;3.22;;;3.00;;
72394;SDS011;60384;48.152;11.614;2023-03-01T09:05:46;7.03;;;2.45;;
72394;SDS011;60384;48.152;11.614;2023-03-01T09:08:49;2.42;;;1.67;;
72394;SDS011;60384;48.152;11.614;2023-03-01T09:11:52;9.48;;;3.55;;
72394;SDS011;60384;48.152;11.614;2023-03-01T09:14:53;2.95;;;1.27;;
72394;SDS011;60384;48.152;11.614;2023-03-01T09:17:55;9.20;;;4.68;;
72394;SDS011;60384;48.152;11.614;2023-03-01T09:21:02;1.90;;;1.10;;
72394;SDS011;60384;48.152;11.614;2023-03-01T09:24:08;6.22;;;3.28;;
72394;SDS011;60384;48.152;11.614;2023-03-01T09:27:13;7.35;;;3.30;;
72394;SDS011;60384;48.152;11.614;2023-03-01T09:30:18;1.95;;;1.27;;
72394;SDS011;60384;48.152;11.614;2023-03-01T09:33:20;4.10;;;3.05;;
72394;SDS011;60384;48.152;11.614;2023-03-01T09:36:24;4.97;;;3.67;;
72394;SDS011;60384;48.152;11.614;2023-03-01T09:39:26;0.93;;;0.40;;
72394;SDS011;60384;48.152;11.614;2023-03-01T09:42:28;2.45;;;1.83;;
72394;SDS011;60384;48.152;11.614;2023-03-01T09:45:33;2.03;;;1.65;;
72394;SDS011;60384;48.152;11.614;2023-03-01T09:48:38;8.52;;;4.28;;
72394;SDS011;60384;48.152;11.614;2023-03-01T09:51:47;3.10;;;2.58;;
72394;SDS011;60384;48.152;11.614;2023-03-01T09:54:58;2.28;;;1.25;;
72394;SDS011;60384;48.152;11.614;2023-03-01T09:58:01;5.18;;;3.13;;
72394;SDS011;60384;48.152;11.614;2023-03-01T10:01:25;1.70;;;1.58;;
72394;SDS011;60384;48.152;11.614;2023-03-01T10:04:38;3.30;;;1.45;;
72394;SDS011;60384;48.152;11.614;2023-03-01T10:07:47;2.30;;;1.95;;
72394;SDS011;60384;48.152;11.614;2023-03-01T10:10:57;2.38;;;1.02;;
72394;SDS011;60384;48.152;11.614;2023-03-01T10:14:01;6.68;;;2.35;;
72394;SDS011;60384;48.152;11.614;2023-03-01T10:17:08;4.85;;;2.97;;
72394;SDS011;60384;48.152;11.614;2023-03-01T10:20:15;5.75;;;2.35;;
72394;SDS011;60384;48.152;11.614;2023-03-01T10:23:23;2.15;;;1.25;;
72394;SDS011;60384;48.152;11.614;2023-03-01T10:26:32;1.10;;;1.08;;
72394;SDS011;60384;48.152;11.614;2023-03-01T10:29:46;7.97;;;3.45;;
72394;SDS011;60384;48.152;11.614;2023-03-01T10:32:56;11.57;;;2.88;;
72394;SDS011;60384;48.152;11.614;2023-03-01T10:35:59;1.05;;;0.98;;
72394;SDS011;60384;48.152;11.614;2023-03-01T10:39:02;2.35;;;1.55;;
72394;SDS011;60384;48.152;11.614;2023-03-01T10:42:19;1.95;;;1.42;;
72394;SDS011;60384;48.152;11.614;2023-03-01T10:45:30;3.78;;;1.77;;
72394;SDS011;60384;48.152;11.614;2023-03-01T10:48:34;2.95;;;2.35;;
72394;SDS011;60384;48.152;11.614;2023-03-01T10:51:36;3.55;;;2.92;;
72394;SDS011;60384;48.152;11.614;2023-03-01T10:54:42;0.68;;;0.63;;
72394;SDS011;60384;48.152;11.614;2023-03-01T10:58:05;1.75;;;1.65;;
72394;SDS011;60384;48.152;11.614;2023-03-01T11:01:23;12.68;;;5.22;;
72394;SDS011;60384;48.152;11.614;2023-03-01T11:04:27;5.38;;;3.20;;
72394;SDS011;60384;48.152;11.614;2023-03-01T11:07:28;3.45;;;2.55;;
72394;SDS011;60384;48.152;11.614;2023-03-01T11:10:32;5.78;;;1.92;;
72394;SDS011;60384;48.152;11.614;2023-03-01T11:13:36;3.17;;;1.85;;
72394;SDS011;60384;48.152;11.614;2023-03-01T11:16:49;6.30;;;4.70;;
72394;SDS011;60384;48.152;11.614;2023-03-01T11:20:01;8.95;;;3.80;;
72394;SDS011;60384;48.152;11.614;2023-03-01T11:23:09;11.25;;;4.38;;
72394;SDS011;60384;48.152;11.614;2023-03-01T11:26:14;9.45;;;5.22;;
72394;SDS011;60384;48.152;11.614;2023-03-01T11:29:21;10.73;;;4.47;;
72394;SDS011;60384;48.152;11.614;2023-03-01T11:32:31;8.63;;;4.72;;
72394;SDS011;60384;48.152;11.614;2023-03-01T11:35:57;9.82;;;4.45;;
72394;SDS011;60384;48.152;11.614;2023-03-01T11:39:05;8.70;;;5.43;;
72394;SDS011;60384;48.152;11.614;2023-03-01T11:42:22;10.60;;;4.97;;
72394;SDS011;60384;48.152;11.614;2023-03-01T11:45:34;11.43;;;6.45;;
72394;SDS011;60384;48.152;11.614;2023-03-01T11:48:46;12.90;;;5.82;;
72394;SDS011;60384;48.152;11.614;2023-03-01T11:52:00;14.90;;;8.25;;
72394;SDS011;60384;48.152;11.614;2023-03-01T11:55:19;14.00;;;6.60;;
72394;SDS011;60384;48.152;11.614;2023-03-01T11:58:38;12.57;;;6.18;;
72394;SDS011;60384;48.152;11.614;2023-03-01T12:05:13;9.90;;;5.97;;
72394;SDS011;60384;48.152;11.614;2023-03-01T12:08:26;9.30;;;5.30;;
72394;SDS011;60384;48.152;11.614;2023-03-01T12:11:41;11.27;;;5.70;;
72394;SDS011;60384;48.152;11.614;2023-03-01T12:14:55;13.27;;;6.38;;
72394;SDS011;60384;48.152;11.614;2023-03-01T12:18:33;15.80;;;7.70;;
72394;SDS011;60384;48.152;11.614;2023-03-01T12:21:58;13.57;;;6.75;;
72394;SDS011;60384;48.152;11.614;2023-03-01T12:25:28;10.57;;;5.70;;
72394;SDS011;60384;48.152;11.614;2023-03-01T12:28:48;13.45;;;6.78;;
72394;SDS011;60384;48.152;11.614;2023-03-01T12:32:04;14.70;;;6.32;;
72394;SDS011;60384;48.152;11.614;2023-03-01T12:35:25;13.75;;;6.07;;
72394;SDS011;60384;48.152;11.614;2023-03-01T12:38:39;11.50;;;6.53;;
72394;SDS011;60384;48.152;11.614;2023-03-01T12:41:46;10.18;;;5.38;;
72394;SDS011;60384;48.152;11.614;2023-03-01T12:45:12;11.98;;;6.22;;
72394;SDS011;60384;48.152;11.614;2023-03-01T12:48:37;10.80;;;6.03;;
72394;SDS011;60384;48.152;11.614;2023-03-01T12:51:50;9.13;;;5.35;;
72394;SDS011;60384;48.152;11.614;2023-03-01T12:54:55;13.68;;;5.97;;
72394;SDS011;60384;48.152;11.614;2023-03-01T12:58:02;11.27;;;5.80;;
72394;SDS011;60384;48.152;11.614;2023-03-01T13:01:21;11.23;;;5.45;;
72394;SDS011;60384;48.152;11.614;2023-03-01T13:04:31;11.35;;;4.85;;
72394;SDS011;60384;48.152;11.614;2023-03-01T13:07:43;6.63;;;4.72;;
72394;SDS011;60384;48.152;11.614;2023-03-01T13:10:55;10.25;;;5.68;;
72394;SDS011;60384;48.152;11.614;2023-03-01T13:17:40;8.77;;;4.25;;
72394;SDS011;60384;48.152;11.614;2023-03-01T13:20:47;6.72;;;3.67;;
72394;SDS011;60384;48.152;11.614;2023-03-01T13:23:50;9.98;;;4.57;;
72394;SDS011;60384;48.152;11.614;2023-03-01T13:33:41;13.90;;;5.88;;
72394;SDS011;60384;48.152;11.614;2023-03-01T13:36:47;8.80;;;4.90;;
72394;SDS011;60384;48.152;11.614;2023-03-01T13:39:49;7.35;;;4.18;;
72394;SDS011;60384;48.152;11.614;2023-03-01T13:42:52;7.18;;;4.47;;
72394;SDS011;60384;48.152;11.614;2023-03-01T13:45:54;12.48;;;4.22;;
72394;SDS011;60384;48.152;11.614;2023-03-01T13:48:56;5.50;;;3.22;;
72394;SDS011;60384;48.152;11.614;2023-03-01T13:52:00;8.30;;;4.50;;
72394;SDS011;60384;48.152;11.614;2023-03-01T13:55:03;6.78;;;3.67;;
72394;SDS011;60384;48.152;11.614;2023-03-01T13:58:21;6.20;;;3.47;;
72394;SDS011;60384;48.152;11.614;2023-03-01T14:01:26;10.45;;;3.67;;
72394;SDS011;60384;48.152;11.614;2023-03-01T14:04:31;5.72;;;3.92;;
72394;SDS011;60384;48.152;11.614;2023-03-01T14:07:37;10.35;;;4.72;;
72394;SDS011;60384;48.152;11.614;2023-03-01T14:10:42;7.75;;;3.85;;
72394;SDS011;60384;48.152;11.614;2023-03-01T14:14:00;5.93;;;3.42;;
72394;SDS011;60384;48.152;11.614;2023-03-01T14:20:51;6.75;;;4.32;;
72394;SDS011;60384;48.152;11.614;2023-03-01T14:23:55;6.85;;;4.35;;
72394;SDS011;60384;48.152;11.614;2023-03-01T14:27:00;6.85;;;2.50;;
72394;SDS011;60384;48.152;11.614;2023-03-01T14:30:02;5.47;;;3.45;;
72394;SDS011;60384;48.152;11.614;2023-03-01T14:33:20;6.07;;;3.00;;
72394;SDS011;60384;48.152;11.614;2023-03-01T14:36:25;3.92;;;1.88;;
72394;SDS011;60384;48.152;11.614;2023-03-01T14:39:30;6.63;;;4.10;;
72394;SDS011;60384;48.152;11.614;2023-03-01T14:42:34;12.68;;;4.72;;
72394;SDS011;60384;48.152;11.614;2023-03-01T14:45:37;8.70;;;2.83;;
72394;SDS011;60384;48.152;11.614;2023-03-01T14:48:39;4.78;;;2.80;;
72394;SDS011;60384;48.152;11.614;2023-03-01T14:51:41;10.32;;;3.08;;
72394;SDS011;60384;48.152;11.614;2023-03-01T14:54:50;3.42;;;2.10;;
72394;SDS011;60384;48.152;11.614;2023-03-01T14:57:53;11.13;;;2.72;;
72394;SDS011;60384;48.152;11.614;2023-03-01T15:00:56;4.15;;;2.70;;
72394;SDS011;60384;48.152;11.614;2023-03-01T15:04:00;3.13;;;2.83;;
72394;SDS011;60384;48.152;11.614;2023-03-01T15:07:03;4.30;;;2.55;;
72394;SDS011;60384;48.152;11.614;2023-03-01T15:10:14;5.53;;;2.42;;
72394;SDS011;60384;48.152;11.614;2023-03-01T15:13:21;8.52;;;3.35;;
72394;SDS011;60384;48.152;11.614;2023-03-01T15:16:24;10.77;;;3.35;;
72394;SDS011;60384;48.152;11.614;2023-03-01T15:19:28;5.78;;;1.73;;
72394;SDS011;60384;48.152;11.614;2023-03-01T15:22:30;6.63;;;2.47;;
72394;SDS011;60384;48.152;11.614;2023-03-01T15:25:33;1.77;;;1.45;;
72394;SDS011;60384;48.152;11.614;2023-03-01T15:28:37;5.70;;;2.55;;
72394;SDS011;60384;48.152;11.614;2023-03-01T15:31:52;11.07;;;4.45;;
72394;SDS011;60384;48.152;11.614;2023-03-01T15:34:56;8.63;;;5.35;;
72394;SDS011;60384;48.152;11.614;2023-03-01T15:37:58;3.90;;;1.52;;
72394;SDS011;60384;48.152;11.614;2023-03-01T15:44:25;3.47;;;1.67;;
72394;SDS011;60384;48.152;11.614;2023-03-01T15:47:29;2.83;;;1.63;;
72394;SDS011;60384;48.152;11.614;2023-03-01T15:50:33;2.20;;;1.52;;
72394;SDS011;60384;48.152;11.614;2023-03-01T15:53:40;4.00;;;1.30;;
72394;SDS011;60384;48.152;11.614;2023-03-01T15:56:43;4.93;;;2.97;;
72394;SDS011;60384;48.152;11.614;2023-03-01T15:59:45;2.15;;;0.95;;
72394;SDS011;60384;48.152;11.614;2023-03-01T16:02:47;3.90;;;2.83;;
72394;SDS011;60384;48.152;11.614;2023-03-01T16:05:49;1.85;;;1.50;;
72394;SDS011;60384;48.152;11.614;2023-03-01T16:08:51;4.40;;;2.47;;
72394;SDS011;60384;48.152;11.614;2023-03-01T16:11:54;4.82;;;2.88;;
72394;SDS011;60384;48.152;11.614;2023-03-01T16:14:56;1.75;;;1.13;;
72394;SDS011;60384;48.152;11.614;2023-03-01T16:17:58;4.13;;;2.08;;
72394;SDS011;60384;48.152;11.614;2023-03-01T16:21:00;2.15;;;1.60;;
72394;SDS011;60384;48.152;11.614;2023-03-01T16:24:02;1.17;;;0.80;;
72394;SDS011;60384;48.152;11.614;2023-03-01T16:27:06;7.05;;;2.08;;
72394;SDS011;60384;48.152;11.614;2023-03-01T16:30:08;1.60;;;1.05;;
72394;SDS011;60384;48.152;11.614;2023-03-01T16:33:11;4.32;;;1.42;;
72394;SDS011;60384;48.152;11.614;2023-03-01T16:36:13;2.10;;;1.38;;
72394;SDS011;60384;48.152;11.614;2023-03-01T16:39:15;2.13;;;1.05;;
72394;SDS011;60384;48.152;11.614;2023-03-01T16:42:18;0.80;;;0.80;;
72394;SDS011;60384;48.152;11.614;2023-03-01T16:45:20;5.95;;;1.45;;
72394;SDS011;60384;48.152;11.614;2023-03-01T16:48:22;6.57;;;2.10;;
72394;SDS011;60384;48.152;11.614;2023-03-01T16:51:24;6.55;;;1.23;;
72394;SDS011;60384;48.152;11.614;2023-03-01T16:54:26;1.95;;;1.65;;
72394;SDS011;60384;48.152;11.614;2023-03-01T16:57:29;1.08;;;0.90;;
72394;SDS011;60384;48.152;11.614;2023-03-01T17:00:31;5.57;;;3.67;;
72394;SDS011;60384;48.152;11.614;2023-03-01T17:03:33;1.35;;;1.08;;
72394;SDS011;60384;48.152;11.614;2023-03-01T17:09:37;3.95;;;3.35;;
72394;SDS011;60384;48.152;11.614;2023-03-01T17:12:40;0.75;;;0.30;;
72394;SDS011;60384;48.152;11.614;2023-03-01T17:15:42;2.97;;;1.83;;
72394;SDS011;60384;48.152;11.614;2023-03-01T17:18:44;0.88;;;0.60;;
72394;SDS011;60384;48.152;11.614;2023-03-01T17:24:47;0.38;;;0.38;;
72394;SDS011;60384;48.152;11.614;2023-03-01T17:27:51;4.30;;;1.00;;
72394;SDS011;60384;48.152;11.614;2023-03-01T17:30:53;0.50;;;0.50;;
72394;SDS011;60384;48.152;11.614;2023-03-01T17:33:55;13.70;;;2.22;;
72394;SDS011;60384;48.152;11.614;2023-03-01T17:36:57;1.90;;;1.50;;
72394;SDS011;60384;48.152;11.614;2023-03-01T17:39:59;6.10;;;2.05;;
72394;SDS011;60384;48.152;11.614;2023-03-01T17:43:02;2.33;;;1.98;;
72394;SDS011;60384;48.152;11.614;2023-03-01T17:46:04;2.17;;;1.75;;
72394;SDS011;60384;48.152;11.614;2023-03-01T17:49:05;2.53;;;1.30;;
72394;SDS011;60384;48.152;11.614;2023-03-01T17:52:07;2.33;;;1.05;;
72394;SDS011;60384;48.152;11.614;2023-03-01T17:55:09;1.58;;;1.25;;
72394;SDS011;60384;48.152;11.614;2023-03-01T18:01:15;2.95;;;1.95;;
72394;SDS011;60384;48.152;11.614;2023-03-01T18:04:18;0.85;;;0.85;;
72394;SDS011;60384;48.152;11.614;2023-03-01T18:07:20;3.60;;;2.72;;
72394;SDS011;60384;48.152;11.614;2023-03-01T18:10:22;3.72;;;2.05;;
72394;SDS011;60384;48.152;11.614;2023-03-01T18:13:25;0.57;;;0.57;;
72394;SDS011;60384;48.152;11.614;2023-03-01T18:16:27;2.63;;;1.75;;
72394;SDS011;60384;48.152;11.614;2023-03-01T18:19:30;1.70;;;1.52;;
72394;SDS011;60384;48.152;11.614;2023-03-01T18:22:32;1.75;;;1.50;;
72394;SDS011;60384;48.152;11.614;2023-03-01T18:25:37;4.93;;;2.90;;
72394;SDS011;60384;48.152;11.614;2023-03-01T18:28:41;3.92;;;2.63;;
72394;SDS011;60384;48.152;11.614;2023-03-01T18:31:46;2.53;;;2.03;;
72394;SDS011;60384;48.152;11.614;2023-03-01T18:34:48;3.55;;;2.10;;
72394;SDS011;60384;48.152;11.614;2023-03-01T18:37:50;4.47;;;1.63;;
72394;SDS011;60384;48.152;11.614;2023-03-01T18:40:52;4.50;;;2.80;;
72394;SDS011;60384;48.152;11.614;2023-03-01T18:43:55;1.92;;;0.88;;
72394;SDS011;60384;48.152;11.614;2023-03-01T18:46:57;0.68;;;0.60;;
72394;SDS011;60384;48.152;11.614;2023-03-01T18:49:59;3.47;;;2.83;;
72394;SDS011;60384;48.152;11.614;2023-03-01T18:53:01;3.72;;;3.30;;
72394;SDS011;60384;48.152;11.614;2023-03-01T18:56:03;3.75;;;2.13;;
72394;SDS011;60384;48.152;11.614;2023-03-01T18:59:07;3.10;;;2.15;;
72394;SDS011;60384;48.152;11.614;2023-03-01T19:02:10;2.63;;;2.38;;